createdAt,value
2023-03-17T00:00:34.179Z,1715.00
2023-03-17T00:01:34.151Z,1707.00
2023-03-17T00:02:34.205Z,1686.00
2023-03-17T00:03:34.223Z,1703.00
2023-03-17T00:04:34.296Z,1736.00
2023-03-17T00:05:34.240Z,1756.00
2023-03-17T00:06:34.211Z,1736.00
2023-03-17T00:07:34.228Z,1748.00
2023-03-17T00:08:34.243Z,1764.00
2023-03-17T00:09:34.280Z,1740.00
2023-03-17T00:10:34.287Z,1759.00
2023-03-17T00:11:33.304Z,1741.00
2023-03-17T00:12:34.355Z,1763.00
2023-03-17T00:13:33.328Z,1761.00
2023-03-17T00:14:34.373Z,1733.00
2023-03-17T00:15:34.419Z,1744.00
2023-03-17T00:16:34.359Z,1743.00
2023-03-17T00:17:33.375Z,1732.00
2023-03-17T00:18:34.385Z,1706.00
2023-03-17T00:19:34.429Z,1669.00
2023-03-17T00:20:34.407Z,1699.00
2023-03-17T00:21:34.441Z,1741.00
2023-03-17T00:22:34.480Z,1752.00
2023-03-17T00:23:34.483Z,1755.00
2023-03-17T00:24:34.479Z,1750.00
2023-03-17T00:25:34.463Z,1748.00
2023-03-17T00:26:34.486Z,1738.00
2023-03-17T00:27:34.496Z,1721.00
2023-03-17T00:28:34.542Z,1735.00
2023-03-17T00:29:34.562Z,1750.00
2023-03-17T00:30:34.571Z,1717.00
2023-03-17T00:31:34.615Z,1711.00
2023-03-17T00:32:33.653Z,1723.00
2023-03-17T00:33:34.635Z,1734.00
2023-03-17T00:34:34.621Z,1702.00
2023-03-17T00:35:33.719Z,1711.00
2023-03-17T00:36:34.660Z,1739.00
2023-03-17T00:37:34.671Z,1709.00
2023-03-17T00:38:34.693Z,1715.00
2023-03-17T00:39:34.712Z,1690.00
2023-03-17T00:40:34.793Z,1671.00
2023-03-17T00:41:34.782Z,1685.00
2023-03-17T00:42:34.781Z,1701.00
2023-03-17T00:43:34.796Z,1722.00
2023-03-17T00:44:34.885Z,1690.00
2023-03-17T00:45:34.871Z,1720.00
2023-03-17T00:46:34.991Z,1710.00
2023-03-17T00:47:34.943Z,1678.00
2023-03-17T00:48:34.912Z,1692.00
2023-03-17T00:49:33.951Z,1727.00
2023-03-17T00:50:33.991Z,1732.00
2023-03-17T00:51:35.015Z,1662.00
2023-03-17T00:52:35.029Z,1644.00
2023-03-17T00:53:34.114Z,1662.00
2023-03-17T00:54:34.099Z,1708.00
2023-03-17T00:55:34.113Z,1695.00
2023-03-17T00:56:34.122Z,1689.00
2023-03-17T00:57:34.184Z,1669.00
2023-03-17T00:58:35.170Z,1684.00
2023-03-17T00:59:34.224Z,1706.00
2023-03-17T01:00:35.286Z,1727.00
2023-03-17T01:01:35.297Z,1689.00
2023-03-17T01:02:35.269Z,1679.00
2023-03-17T01:03:35.305Z,1682.00
2023-03-17T01:04:34.329Z,1708.00
2023-03-17T01:05:35.370Z,1706.00
2023-03-17T01:06:35.409Z,1703.00
2023-03-17T01:07:35.422Z,1678.00
2023-03-17T01:08:35.442Z,1654.00
2023-03-17T01:09:35.475Z,1702.00
2023-03-17T01:10:35.538Z,1701.00
2023-03-17T01:11:35.542Z,1630.00
2023-03-17T01:12:34.574Z,1577.00
2023-03-17T01:13:35.616Z,1589.00
2023-03-17T01:14:37.366Z,1538.00
2023-03-17T01:15:35.655Z,1597.00
2023-03-17T01:16:34.688Z,1631.00
2023-03-17T01:17:34.620Z,1597.00
2023-03-17T01:18:34.708Z,1581.00
2023-03-17T01:19:35.594Z,1530.00
2023-03-17T01:20:35.609Z,1567.00
2023-03-17T01:21:35.586Z,1576.00
2023-03-17T01:22:35.563Z,1549.00
2023-03-17T01:23:35.560Z,1575.00
2023-03-17T01:24:34.552Z,1610.00
2023-03-17T01:25:35.561Z,1620.00
2023-03-17T01:26:35.542Z,1610.00
2023-03-17T01:27:35.558Z,1634.00
2023-03-17T01:28:35.544Z,1666.00
2023-03-17T01:29:35.516Z,1652.00
2023-03-17T01:30:35.524Z,1587.00
2023-03-17T01:31:34.576Z,1616.00
2023-03-17T01:32:35.576Z,1624.00
2023-03-17T01:33:35.501Z,1618.00
2023-03-17T01:34:35.498Z,1554.00
2023-03-17T01:35:35.541Z,1497.00
2023-03-17T01:36:35.504Z,1486.00
2023-03-17T01:37:35.490Z,1490.00
2023-03-17T01:38:34.467Z,1477.00
2023-03-17T01:39:35.465Z,1447.00
2023-03-17T01:40:35.455Z,1493.00
2023-03-17T01:41:34.440Z,1570.00
2023-03-17T01:42:35.440Z,1579.00
2023-03-17T01:43:35.449Z,1567.00
2023-03-17T01:44:35.416Z,1579.00
2023-03-17T01:45:35.461Z,1597.00
2023-03-17T01:46:34.498Z,1571.00
2023-03-17T01:47:35.402Z,1520.00
2023-03-17T01:48:35.425Z,1577.00
2023-03-17T01:49:35.396Z,1556.00
2023-03-17T01:50:35.415Z,1544.00
2023-03-17T01:51:35.451Z,1573.00
2023-03-17T01:52:35.466Z,1499.00
2023-03-17T01:53:35.522Z,1444.00
2023-03-17T01:54:35.594Z,1438.00
2023-03-17T01:55:35.635Z,1484.00
2023-03-17T01:56:35.662Z,1432.00
2023-03-17T01:57:35.696Z,1380.00
2023-03-17T01:58:35.744Z,1456.00
2023-03-17T01:59:35.790Z,1455.00
2023-03-17T02:00:35.884Z,1413.00
2023-03-17T02:01:35.898Z,1373.00
2023-03-17T02:02:35.961Z,1382.00
2023-03-17T02:03:36.002Z,1361.00
2023-03-17T02:04:36.141Z,1332.00
2023-03-17T02:05:35.095Z,1283.00
2023-03-17T02:06:42.151Z,1291.00
2023-03-17T02:07:36.196Z,1292.00
2023-03-17T02:08:36.134Z,1299.00
2023-03-17T02:09:36.124Z,1308.00
2023-03-17T02:10:36.107Z,1328.00
2023-03-17T02:11:35.132Z,1367.00
2023-03-17T02:12:35.130Z,1323.00
2023-03-17T02:13:35.115Z,1289.00
2023-03-17T02:14:36.093Z,1263.00
2023-03-17T02:15:36.077Z,1268.00
2023-03-17T02:16:36.126Z,1260.00
2023-03-17T02:17:36.068Z,1266.00
2023-03-17T02:18:36.067Z,1242.00
2023-03-17T02:19:36.051Z,1280.00
2023-03-17T02:20:36.072Z,1231.00
2023-03-17T02:21:36.027Z,1230.00
2023-03-17T02:22:35.034Z,1215.00
2023-03-17T02:23:36.012Z,1285.00
2023-03-17T02:24:36.030Z,1344.00
2023-03-17T02:25:36.011Z,1329.00
2023-03-17T02:26:35.012Z,1300.00
2023-03-17T02:27:35.988Z,1295.00
2023-03-17T02:28:35.980Z,1331.00
2023-03-17T02:29:35.005Z,1263.00
2023-03-17T02:30:35.993Z,1234.00
2023-03-17T02:31:35.968Z,1216.00
2023-03-17T02:32:36.097Z,1192.00
2023-03-17T02:33:34.952Z,1214.00
2023-03-17T02:34:35.053Z,1235.00
2023-03-17T02:35:36.143Z,1230.00
2023-03-17T02:36:36.168Z,1190.00
2023-03-17T02:37:35.150Z,1177.00
2023-03-17T02:38:35.206Z,1192.00
2023-03-17T02:39:36.301Z,1191.00
2023-03-17T02:40:36.331Z,1229.00
2023-03-17T02:41:36.379Z,1301.00
2023-03-17T02:42:36.420Z,1287.00
2023-03-17T02:43:36.464Z,1251.00
2023-03-17T02:44:36.526Z,1212.00
2023-03-17T02:45:35.569Z,1268.00
2023-03-17T02:46:36.625Z,1224.00
2023-03-17T02:47:36.668Z,1168.00
2023-03-17T02:48:36.721Z,1168.00
2023-03-17T02:49:36.765Z,1147.00
2023-03-17T02:50:36.822Z,1130.00
2023-03-17T02:51:35.861Z,1122.00
2023-03-17T02:52:36.931Z,1125.00
2023-03-17T02:53:36.974Z,1136.00
2023-03-17T02:54:37.034Z,1123.00
2023-03-17T02:55:36.085Z,1220.00
2023-03-17T02:56:36.153Z,1198.00
2023-03-17T02:57:36.191Z,1193.00
2023-03-17T02:58:37.261Z,1159.00
2023-03-17T02:59:37.308Z,1150.00
2023-03-17T03:00:36.371Z,1160.00
2023-03-17T03:01:37.450Z,1191.00
2023-03-17T03:02:37.550Z,1191.00
2023-03-17T03:03:36.533Z,1145.00
2023-03-17T03:04:37.596Z,1116.00
2023-03-17T03:05:37.666Z,1103.00
2023-03-17T03:06:37.720Z,1119.00
2023-03-17T03:07:37.767Z,1101.00
2023-03-17T03:08:37.848Z,1091.00
2023-03-17T03:09:37.901Z,1084.00
2023-03-17T03:10:37.975Z,1068.00
2023-03-17T03:11:38.018Z,1074.00
2023-03-17T03:12:38.101Z,1059.00
2023-03-17T03:13:38.144Z,1052.00
2023-03-17T03:14:37.209Z,1039.00
2023-03-17T03:15:37.311Z,1111.00
2023-03-17T03:16:38.329Z,1091.00
2023-03-17T03:17:38.403Z,1056.00
2023-03-17T03:18:37.447Z,1082.00
2023-03-17T03:19:38.514Z,1064.00
2023-03-17T03:20:38.587Z,1066.00
2023-03-17T03:21:38.716Z,1060.00
2023-03-17T03:22:38.725Z,1095.00
2023-03-17T03:23:38.777Z,1118.00
2023-03-17T03:24:37.858Z,1146.00
2023-03-17T03:25:38.902Z,1091.00
2023-03-17T03:26:37.977Z,1077.00
2023-03-17T03:27:38.039Z,1053.00
2023-03-17T03:28:39.089Z,1030.00
2023-03-17T03:29:38.144Z,1020.00
2023-03-17T03:30:38.211Z,1032.00
2023-03-17T03:31:39.254Z,1017.00
2023-03-17T03:32:38.379Z,1007.00
2023-03-17T03:33:39.383Z,979.00
2023-03-17T03:34:38.446Z,1006.00
2023-03-17T03:35:39.536Z,976.00
2023-03-17T03:36:39.538Z,979.00
2023-03-17T03:37:39.611Z,1008.00
2023-03-17T03:38:38.671Z,1027.00
2023-03-17T03:39:39.716Z,1003.00
2023-03-17T03:40:39.787Z,990.00
2023-03-17T03:41:39.811Z,993.00
2023-03-17T03:42:39.860Z,997.00
2023-03-17T03:43:39.896Z,990.00
2023-03-17T03:44:38.943Z,1015.00
2023-03-17T03:45:40.031Z,996.00
2023-03-17T03:46:40.090Z,997.00
2023-03-17T03:47:39.128Z,987.00
2023-03-17T03:48:39.164Z,985.00
2023-03-17T03:49:40.206Z,961.00
2023-03-17T03:50:40.260Z,953.00
2023-03-17T03:51:40.304Z,969.00
2023-03-17T03:52:40.356Z,963.00
2023-03-17T03:53:40.414Z,950.00
2023-03-17T03:54:39.456Z,946.00
2023-03-17T03:55:40.510Z,937.00
2023-03-17T03:56:40.573Z,964.00
2023-03-17T03:57:40.593Z,961.00
2023-03-17T03:58:39.632Z,983.00
2023-03-17T03:59:39.702Z,1067.00
2023-03-17T04:00:40.760Z,1026.00
2023-03-17T04:01:40.841Z,1093.00
2023-03-17T04:02:40.968Z,1124.00
2023-03-17T04:03:40.942Z,1096.00
2023-03-17T04:04:41.067Z,1162.00
2023-03-17T04:05:40.065Z,1204.00
2023-03-17T04:06:40.136Z,1173.00
2023-03-17T04:07:40.202Z,1159.00
2023-03-17T04:08:40.258Z,1151.00
2023-03-17T04:09:41.307Z,1123.00
2023-03-17T04:10:41.369Z,1105.00
2023-03-17T04:11:40.470Z,1061.00
2023-03-17T04:12:41.531Z,1030.00
2023-03-17T04:13:41.595Z,1006.00
2023-03-17T04:14:41.616Z,1002.00
2023-03-17T04:15:41.688Z,986.00
2023-03-17T04:16:43.543Z,983.00
2023-03-17T04:17:40.735Z,976.00
2023-03-17T04:18:41.831Z,967.00
2023-03-17T04:19:41.717Z,986.00
2023-03-17T04:20:41.704Z,957.00
2023-03-17T04:21:41.705Z,918.00
2023-03-17T04:22:40.706Z,941.00
2023-03-17T04:23:41.690Z,937.00
2023-03-17T04:24:40.686Z,940.00
2023-03-17T04:25:41.679Z,925.00
2023-03-17T04:26:40.665Z,911.00
2023-03-17T04:27:40.659Z,911.00
2023-03-17T04:28:41.687Z,905.00
2023-03-17T04:29:41.650Z,909.00
2023-03-17T04:30:41.640Z,916.00
2023-03-17T04:31:41.678Z,903.00
2023-03-17T04:32:41.758Z,908.00
2023-03-17T04:33:41.619Z,890.00
2023-03-17T04:34:41.624Z,889.00
2023-03-17T04:35:41.780Z,894.00
2023-03-17T04:36:41.596Z,885.00
2023-03-17T04:37:40.612Z,897.00
2023-03-17T04:38:41.569Z,894.00
2023-03-17T04:39:41.562Z,885.00
2023-03-17T04:40:41.589Z,870.00
2023-03-17T04:41:41.598Z,872.00
2023-03-17T04:42:41.652Z,881.00
2023-03-17T04:43:41.710Z,881.00
2023-03-17T04:44:41.766Z,879.00
2023-03-17T04:45:41.862Z,868.00
2023-03-17T04:46:41.837Z,849.00
2023-03-17T04:47:41.893Z,849.00
2023-03-17T04:48:40.934Z,862.00
2023-03-17T04:49:41.974Z,853.00
2023-03-17T04:50:42.030Z,854.00
2023-03-17T04:51:41.075Z,836.00
2023-03-17T04:52:42.137Z,839.00
2023-03-17T04:53:42.162Z,841.00
2023-03-17T04:54:42.222Z,842.00
2023-03-17T04:55:42.256Z,818.00
2023-03-17T04:56:42.289Z,813.00
2023-03-17T04:57:42.317Z,819.00
2023-03-17T04:58:42.364Z,813.00
2023-03-17T04:59:42.407Z,818.00
2023-03-17T05:00:42.547Z,792.00
2023-03-17T05:01:41.518Z,810.00
2023-03-17T05:02:42.584Z,812.00
2023-03-17T05:03:42.553Z,817.00
2023-03-17T05:04:41.601Z,806.00
2023-03-17T05:05:41.640Z,821.00
2023-03-17T05:06:42.692Z,817.00
2023-03-17T05:07:42.759Z,799.00
2023-03-17T05:08:42.802Z,808.00
2023-03-17T05:09:42.840Z,818.00
2023-03-17T05:10:42.876Z,795.00
2023-03-17T05:11:42.925Z,802.00
2023-03-17T05:12:42.972Z,798.00
2023-03-17T05:13:43.031Z,788.00
2023-03-17T05:14:43.074Z,769.00
2023-03-17T05:15:43.116Z,763.00
2023-03-17T05:16:43.215Z,776.00
2023-03-17T05:17:43.184Z,763.00
2023-03-17T05:18:43.231Z,772.00
2023-03-17T05:19:43.325Z,776.00
2023-03-17T05:20:42.309Z,753.00
2023-03-17T05:21:43.345Z,776.00
2023-03-17T05:22:43.393Z,777.00
2023-03-17T05:23:42.431Z,766.00
2023-03-17T05:24:43.488Z,770.00
2023-03-17T05:25:43.533Z,769.00
2023-03-17T05:26:42.580Z,759.00
2023-03-17T05:27:43.614Z,748.00
2023-03-17T05:28:43.670Z,754.00
2023-03-17T05:29:43.734Z,749.00
2023-03-17T05:30:43.927Z,756.00
2023-03-17T05:31:43.792Z,748.00
2023-03-17T05:32:43.914Z,752.00
2023-03-17T05:33:43.864Z,760.00
2023-03-17T05:34:43.996Z,753.00
2023-03-17T05:35:44.004Z,753.00
2023-03-17T05:36:43.004Z,750.00
2023-03-17T05:37:44.054Z,739.00
2023-03-17T05:38:44.104Z,742.00
2023-03-17T05:39:44.159Z,743.00
2023-03-17T05:40:44.193Z,744.00
2023-03-17T05:41:44.236Z,758.00
2023-03-17T05:42:44.261Z,751.00
2023-03-17T05:43:43.321Z,745.00
2023-03-17T05:44:44.372Z,730.00
2023-03-17T05:45:43.455Z,732.00
2023-03-17T05:46:43.445Z,725.00
2023-03-17T05:47:44.483Z,747.00
2023-03-17T05:48:44.544Z,737.00
2023-03-17T05:49:44.585Z,728.00
2023-03-17T05:50:43.623Z,718.00
2023-03-17T05:51:43.670Z,726.00
2023-03-17T05:52:44.700Z,722.00
2023-03-17T05:53:44.750Z,722.00
2023-03-17T05:54:44.814Z,733.00
2023-03-17T05:55:43.819Z,721.00
2023-03-17T05:56:44.851Z,704.00
2023-03-17T05:57:44.908Z,705.00
2023-03-17T05:58:44.943Z,697.00
2023-03-17T05:59:45.000Z,716.00
2023-03-17T06:00:45.030Z,709.00
2023-03-17T06:01:45.067Z,712.00
2023-03-17T06:02:44.139Z,702.00
2023-03-17T06:03:45.170Z,711.00
2023-03-17T06:04:45.241Z,707.00
2023-03-17T06:05:44.210Z,694.00
2023-03-17T06:06:45.229Z,711.00
2023-03-17T06:07:54.073Z,701.00
2023-03-17T06:08:45.274Z,702.00
2023-03-17T06:09:45.283Z,706.00
2023-03-17T06:10:45.254Z,711.00
2023-03-17T06:11:45.249Z,717.00
2023-03-17T06:12:45.227Z,714.00
2023-03-17T06:13:45.245Z,730.00
2023-03-17T06:14:44.223Z,734.00
2023-03-17T06:15:45.250Z,733.00
2023-03-17T06:16:45.205Z,756.00
2023-03-17T06:17:45.231Z,766.00
2023-03-17T06:18:44.184Z,769.00
2023-03-17T06:19:45.570Z,770.00
2023-03-17T06:20:45.205Z,774.00
2023-03-17T06:21:44.171Z,767.00
2023-03-17T06:23:02.297Z,754.00
2023-03-17T06:44:45.013Z,896.00
2023-03-17T06:45:44.366Z,908.00
2023-03-17T06:47:45.223Z,899.00
2023-03-17T06:49:45.794Z,904.00
2023-03-17T06:52:46.802Z,900.00
2023-03-17T06:53:45.211Z,920.00
2023-03-17T06:54:45.280Z,1055.00
2023-03-17T07:00:44.913Z,813.00
2023-03-17T07:02:43.878Z,817.00
2023-03-17T07:12:44.846Z,1016.00
2023-03-17T07:17:44.762Z,1175.00
2023-03-17T07:32:45.467Z,1545.00
2023-03-17T07:34:45.480Z,1603.00
2023-03-17T07:37:45.610Z,1586.00
2023-03-17T07:38:45.655Z,1591.00
2023-03-17T07:39:45.754Z,1625.00
2023-03-17T07:40:45.819Z,1650.00
2023-03-17T07:41:45.808Z,1684.00
2023-03-17T07:43:45.906Z,1841.00
2023-03-17T07:45:45.998Z,1757.00
2023-03-17T07:46:45.912Z,1801.00
2023-03-17T07:49:45.981Z,1794.00
2023-03-17T07:50:46.005Z,1872.00
2023-03-17T07:51:46.038Z,1937.00
2023-03-17T07:52:46.058Z,1890.00
2023-03-17T07:53:46.126Z,1879.00
2023-03-17T07:54:46.145Z,1863.00
2023-03-17T07:56:46.188Z,1871.00
2023-03-17T07:57:46.259Z,1852.00
2023-03-17T07:59:46.274Z,1859.00
2023-03-17T08:00:46.313Z,1845.00
2023-03-17T08:01:46.328Z,1835.00
2023-03-17T08:02:53.695Z,1833.00
2023-03-17T08:03:46.342Z,1834.00
2023-03-17T08:05:46.313Z,1831.00
2023-03-17T08:06:46.265Z,1819.00
2023-03-17T08:07:45.329Z,1771.00
2023-03-17T08:08:46.244Z,1774.00
2023-03-17T08:09:46.254Z,1768.00
2023-03-17T08:10:46.259Z,1756.00
2023-03-17T08:11:46.237Z,1738.00
2023-03-17T08:12:46.293Z,1778.00
2023-03-17T08:13:46.237Z,1765.00
2023-03-17T08:15:46.203Z,1777.00
2023-03-17T08:16:46.287Z,1761.00
2023-03-17T08:17:46.174Z,1761.00
2023-03-17T08:18:46.259Z,1745.00
2023-03-17T08:20:46.179Z,1750.00
2023-03-17T08:21:46.169Z,1739.00
2023-03-17T08:22:46.143Z,1732.00
2023-03-17T08:23:46.191Z,1739.00
2023-03-17T08:24:46.142Z,1734.00
2023-03-17T08:25:46.137Z,1704.00
2023-03-17T08:26:46.128Z,1698.00
2023-03-17T08:27:46.120Z,1680.00
2023-03-17T08:29:46.095Z,1671.00
2023-03-17T08:31:46.639Z,1690.00
2023-03-17T08:32:46.098Z,1652.00
2023-03-17T08:34:46.059Z,1638.00
2023-03-17T08:35:46.174Z,1639.00
2023-03-17T08:36:46.114Z,1649.00
2023-03-17T08:37:46.054Z,1652.00
2023-03-17T08:38:46.047Z,1635.00
2023-03-17T08:40:46.062Z,1641.00
2023-03-17T08:41:46.118Z,1634.00
2023-03-17T08:42:46.186Z,1626.00
2023-03-17T08:43:46.258Z,1602.00
2023-03-17T08:44:46.336Z,1615.00
2023-03-17T08:45:46.511Z,1588.00
2023-03-17T08:46:46.410Z,1596.00
2023-03-17T08:47:46.442Z,1603.00
2023-03-17T08:48:46.527Z,1590.00
2023-03-17T08:49:46.558Z,1403.00
2023-03-17T08:50:45.833Z,1294.00
2023-03-17T08:51:46.664Z,1378.00
2023-03-17T08:52:47.334Z,1376.00
2023-03-17T08:53:46.733Z,1309.00
2023-03-17T08:54:46.722Z,1284.00
2023-03-17T08:55:46.744Z,1325.00
2023-03-17T08:56:46.739Z,1287.00
2023-03-17T08:57:46.806Z,1152.00
2023-03-17T08:58:46.821Z,1157.00
2023-03-17T08:59:46.879Z,1147.00
2023-03-17T09:00:46.897Z,1113.00
2023-03-17T09:01:46.057Z,1157.00
2023-03-17T09:02:47.043Z,1153.00
2023-03-17T09:03:47.043Z,1176.00
2023-03-17T09:04:46.064Z,1164.00
2023-03-17T09:05:46.071Z,1144.00
2023-03-17T09:07:02.287Z,1139.00
2023-03-17T09:07:47.136Z,1141.00
2023-03-17T09:08:47.108Z,1137.00
2023-03-17T09:09:46.043Z,1093.00
2023-03-17T09:10:47.063Z,1051.00
2023-03-17T09:11:46.021Z,902.00
2023-03-17T09:12:47.021Z,734.00
2023-03-17T09:14:48.155Z,589.00
2023-03-17T09:15:47.117Z,553.00
2023-03-17T09:16:46.027Z,591.00
2023-03-17T09:17:45.974Z,598.00
2023-03-17T09:18:47.003Z,608.00
2023-03-17T09:19:45.987Z,609.00
2023-03-17T09:20:46.981Z,608.00
2023-03-17T09:21:46.966Z,605.00
2023-03-17T09:22:46.959Z,598.00
2023-03-17T09:23:46.958Z,598.00
2023-03-17T09:24:46.933Z,585.00
2023-03-17T09:25:46.940Z,553.00
2023-03-17T09:26:46.934Z,560.00
2023-03-17T09:27:46.924Z,550.00
2023-03-17T09:28:46.896Z,536.00
2023-03-17T09:29:46.909Z,513.00
2023-03-17T09:30:47.005Z,501.00
2023-03-17T09:31:46.887Z,502.00
2023-03-17T09:32:45.939Z,497.00
2023-03-17T09:33:46.883Z,491.00
2023-03-17T09:34:46.884Z,535.00
2023-03-17T09:35:46.939Z,532.00
2023-03-17T09:36:45.875Z,555.00
2023-03-17T09:37:46.845Z,528.00
2023-03-17T09:38:46.818Z,467.00
2023-03-17T09:39:46.824Z,493.00
2023-03-17T09:40:46.846Z,503.00
2023-03-17T09:41:46.851Z,552.00
2023-03-17T09:42:45.816Z,553.00
2023-03-17T09:43:45.796Z,531.00
2023-03-17T09:44:46.783Z,525.00
2023-03-17T09:45:46.793Z,468.00
2023-03-17T09:46:45.806Z,450.00
2023-03-17T09:47:46.759Z,466.00
2023-03-17T09:48:46.765Z,400.00
2023-03-17T09:49:46.747Z,456.00
2023-03-17T09:50:46.792Z,456.00
2023-03-17T09:51:46.788Z,481.00
2023-03-17T09:52:46.732Z,491.00
2023-03-17T09:53:46.712Z,515.00
2023-03-17T09:54:46.767Z,487.00
2023-03-17T09:55:46.759Z,485.00
2023-03-17T09:56:46.882Z,560.00
2023-03-17T09:57:46.770Z,623.00
2023-03-17T09:58:46.733Z,858.00
2023-03-17T09:59:46.770Z,985.00
2023-03-17T10:00:45.795Z,1044.00
2023-03-17T10:01:46.972Z,1331.00
2023-03-17T10:02:46.889Z,1294.00
2023-03-17T10:03:47.131Z,1320.00
2023-03-17T10:04:47.026Z,1412.00
2023-03-17T10:05:45.992Z,1657.00
2023-03-17T10:06:46.018Z,1681.00
2023-03-17T10:07:47.023Z,1713.00
2023-03-17T10:08:47.038Z,1738.00
2023-03-17T10:09:47.034Z,1874.00
2023-03-17T10:10:46.122Z,1871.00
2023-03-17T10:11:47.118Z,1926.00
2023-03-17T10:12:47.156Z,2121.00
2023-03-17T10:13:47.275Z,2150.00
2023-03-17T10:14:49.022Z,2124.00
2023-03-17T10:15:46.305Z,2126.00
2023-03-17T10:16:47.245Z,2133.00
2023-03-17T10:17:47.236Z,2163.00
2023-03-17T10:18:47.233Z,2198.00
2023-03-17T10:19:47.229Z,2288.00
2023-03-17T10:20:48.708Z,2306.00
2023-03-17T10:21:47.237Z,2310.00
2023-03-17T10:22:47.238Z,2318.00
2023-03-17T10:23:47.211Z,2338.00
2023-03-17T10:24:47.226Z,2403.00
2023-03-17T10:25:47.235Z,2474.00
2023-03-17T10:26:47.223Z,2513.00
2023-03-17T10:27:47.171Z,2543.00
2023-03-17T10:28:47.178Z,2553.00
2023-03-17T10:29:48.535Z,2588.00
2023-03-17T10:30:47.221Z,2603.00
2023-03-17T10:31:47.301Z,2625.00
2023-03-17T10:32:47.326Z,2634.00
2023-03-17T10:33:47.249Z,2633.00
2023-03-17T10:34:46.253Z,2608.00
2023-03-17T10:35:47.356Z,2546.00
2023-03-17T10:36:47.329Z,2428.00
2023-03-17T10:37:47.270Z,2446.00
2023-03-17T10:38:47.302Z,2428.00
2023-03-17T10:39:46.262Z,2333.00
2023-03-17T10:40:47.295Z,2257.00
2023-03-17T10:41:47.336Z,2249.00
2023-03-17T10:42:46.318Z,2216.00
2023-03-17T10:43:47.357Z,2223.00
2023-03-17T10:44:47.336Z,2172.00
2023-03-17T10:45:47.356Z,2077.00
2023-03-17T10:46:47.384Z,1848.00
2023-03-17T10:47:47.391Z,1436.00
2023-03-17T10:48:47.431Z,1063.00
2023-03-17T10:49:47.492Z,995.00
2023-03-17T10:50:49.469Z,932.00
2023-03-17T10:51:47.880Z,977.00
2023-03-17T10:52:47.536Z,1058.00
2023-03-17T10:53:47.515Z,1064.00
2023-03-17T10:54:46.501Z,1193.00
2023-03-17T10:55:46.487Z,1296.00
2023-03-17T10:56:47.488Z,1284.00
2023-03-17T10:57:47.466Z,1276.00
2023-03-17T10:58:46.470Z,1328.00
2023-03-17T10:59:47.473Z,1364.00
2023-03-17T11:00:46.476Z,1374.00
2023-03-17T11:01:47.470Z,1408.00
2023-03-17T11:02:47.434Z,1440.00
2023-03-17T11:03:47.559Z,1595.00
2023-03-17T11:04:47.421Z,1532.00
2023-03-17T11:05:47.412Z,1554.00
2023-03-17T11:06:47.443Z,1574.00
2023-03-17T11:07:47.398Z,1587.00
2023-03-17T11:08:47.434Z,1597.00
2023-03-17T11:09:47.384Z,1616.00
2023-03-17T11:10:47.395Z,1613.00
2023-03-17T11:11:47.398Z,1611.00
2023-03-17T11:12:47.395Z,1632.00
2023-03-17T11:13:47.369Z,1692.00
2023-03-17T11:14:47.411Z,1731.00
2023-03-17T11:15:47.423Z,1738.00
2023-03-17T11:16:47.563Z,1760.00
2023-03-17T11:17:47.516Z,1740.00
2023-03-17T11:18:47.506Z,1732.00
2023-03-17T11:19:46.498Z,1712.00
2023-03-17T11:20:46.511Z,1796.00
2023-03-17T11:21:47.543Z,1772.00
2023-03-17T11:22:47.534Z,1866.00
2023-03-17T11:23:47.541Z,1800.00
2023-03-17T11:24:47.605Z,1907.00
2023-03-17T11:25:47.604Z,1857.00
2023-03-17T11:26:47.656Z,1798.00
2023-03-17T11:27:47.672Z,1813.00
2023-03-17T11:28:47.679Z,1879.00
2023-03-17T11:29:47.718Z,1864.00
2023-03-17T11:30:47.759Z,1882.00
2023-03-17T11:31:47.853Z,1899.00
2023-03-17T11:32:47.714Z,1895.00
2023-03-17T11:33:47.713Z,1868.00
2023-03-17T11:34:47.754Z,1912.00
2023-03-17T11:35:47.777Z,1867.00
2023-03-17T11:36:46.740Z,1888.00
2023-03-17T11:37:47.778Z,1844.00
2023-03-17T11:38:47.963Z,1884.00
2023-03-17T11:39:47.810Z,1917.00
2023-03-17T11:40:47.859Z,1879.00
2023-03-17T11:41:47.852Z,1723.00
2023-03-17T11:42:47.906Z,1727.00
2023-03-17T11:43:46.945Z,1785.00
2023-03-17T11:44:47.976Z,1753.00
2023-03-17T11:45:48.066Z,1800.00
2023-03-17T11:46:48.086Z,1777.00
2023-03-17T11:47:48.142Z,1778.00
2023-03-17T11:48:48.213Z,1794.00
2023-03-17T11:49:47.898Z,1780.00
2023-03-17T11:50:48.320Z,1763.00
2023-03-17T11:51:48.389Z,1808.00
2023-03-17T11:52:47.400Z,1778.00
2023-03-17T11:53:47.425Z,1789.00
2023-03-17T11:54:48.534Z,1810.00
2023-03-17T11:55:48.565Z,1794.00
2023-03-17T11:56:47.649Z,1727.00
2023-03-17T11:57:48.669Z,1746.00
2023-03-17T11:58:48.736Z,1783.00
2023-03-17T11:59:48.788Z,1805.00
2023-03-17T12:00:48.784Z,1844.00
2023-03-17T12:01:48.810Z,1773.00
2023-03-17T12:02:48.806Z,1803.00
2023-03-17T12:03:48.977Z,1785.00
2023-03-17T12:04:48.828Z,1774.00
2023-03-17T12:05:48.804Z,1710.00
2023-03-17T12:06:48.871Z,1749.00
2023-03-17T12:07:48.936Z,1667.00
2023-03-17T12:08:48.974Z,1728.00
2023-03-17T12:09:49.046Z,1651.00
2023-03-17T12:10:49.094Z,1627.00
2023-03-17T12:11:49.213Z,1663.00
2023-03-17T12:12:49.202Z,1673.00
2023-03-17T12:13:49.259Z,1673.00
2023-03-17T12:14:49.328Z,1711.00
2023-03-17T12:15:49.358Z,1662.00
2023-03-17T12:16:48.374Z,1696.00
2023-03-17T12:17:49.366Z,1668.00
2023-03-17T12:18:49.359Z,1678.00
2023-03-17T12:19:49.340Z,1652.00
2023-03-17T12:20:49.345Z,1659.00
2023-03-17T12:21:49.354Z,1666.00
2023-03-17T12:22:49.342Z,1628.00
2023-03-17T12:23:49.342Z,1626.00
2023-03-17T12:24:49.338Z,1599.00
2023-03-17T12:25:49.347Z,1623.00
2023-03-17T12:26:49.371Z,1615.00
2023-03-17T12:27:48.401Z,1629.00
2023-03-17T12:28:49.377Z,1611.00
2023-03-17T12:29:49.355Z,1562.00
2023-03-17T12:30:48.472Z,1550.00
2023-03-17T12:31:49.346Z,1543.00
2023-03-17T12:32:49.477Z,1507.00
2023-03-17T12:33:49.438Z,1564.00
2023-03-17T12:34:49.484Z,1525.00
2023-03-17T12:35:49.595Z,1597.00
2023-03-17T12:36:49.576Z,1583.00
2023-03-17T12:37:49.971Z,1575.00
2023-03-17T12:38:49.761Z,1599.00
2023-03-17T12:39:49.748Z,1518.00
2023-03-17T12:40:49.752Z,1586.00
2023-03-17T12:41:49.779Z,1597.00
2023-03-17T12:42:48.785Z,1597.00
2023-03-17T12:43:49.832Z,1566.00
2023-03-17T12:44:49.866Z,1601.00
2023-03-17T12:45:49.846Z,1579.00
2023-03-17T12:46:49.009Z,1622.00
2023-03-17T12:47:48.891Z,1618.00
2023-03-17T12:48:49.923Z,1576.00
2023-03-17T12:49:49.966Z,1586.00
2023-03-17T12:50:50.028Z,1589.00
2023-03-17T12:51:49.050Z,1607.00
2023-03-17T12:52:50.095Z,1624.00
2023-03-17T12:53:50.141Z,1631.00
2023-03-17T12:54:50.165Z,1640.00
2023-03-17T12:55:50.249Z,1609.00
2023-03-17T12:56:50.246Z,1599.00
2023-03-17T12:57:50.296Z,1610.00
2023-03-17T12:58:50.324Z,1583.00
2023-03-17T12:59:50.377Z,1600.00
2023-03-17T13:00:49.391Z,1641.00
2023-03-17T13:01:50.463Z,1615.00
2023-03-17T13:02:50.525Z,1599.00
2023-03-17T13:03:50.499Z,1561.00
2023-03-17T13:04:50.509Z,1415.00
2023-03-17T13:05:49.512Z,1469.00
2023-03-17T13:06:50.542Z,1484.00
2023-03-17T13:07:50.580Z,1476.00
2023-03-17T13:08:50.575Z,1486.00
2023-03-17T13:09:50.629Z,1554.00
2023-03-17T13:10:49.654Z,1484.00
2023-03-17T13:11:50.684Z,1488.00
2023-03-17T13:12:50.805Z,1497.00
2023-03-17T13:13:50.735Z,1533.00
2023-03-17T13:14:50.782Z,1521.00
2023-03-17T13:15:50.886Z,1507.00
2023-03-17T13:16:50.863Z,1524.00
2023-03-17T13:17:50.896Z,1543.00
2023-03-17T13:18:50.950Z,1517.00
2023-03-17T13:19:50.980Z,1459.00
2023-03-17T13:20:51.012Z,1521.00
2023-03-17T13:21:51.068Z,1515.00
2023-03-17T13:22:51.096Z,1472.00
2023-03-17T13:23:51.117Z,1474.00
2023-03-17T13:24:51.207Z,1462.00
2023-03-17T13:25:51.187Z,1433.00
2023-03-17T13:26:50.209Z,1332.00
2023-03-17T13:27:51.215Z,1197.00